createdAt,value
2023-03-04T00:02:13.618Z,12.88
2023-03-04T00:04:45.564Z,13.20
2023-03-04T00:07:17.860Z,14.35
2023-03-04T00:09:47.538Z,13.98
2023-03-04T00:12:16.679Z,12.65
2023-03-04T00:14:47.075Z,12.98
2023-03-04T00:17:26.633Z,14.35
2023-03-04T00:19:58.800Z,14.00
2023-03-04T00:22:27.844Z,13.18
2023-03-04T00:25:00.209Z,14.55
2023-03-04T00:27:29.106Z,14.30
2023-03-04T00:29:59.623Z,14.73
2023-03-04T00:33:11.378Z,14.88
2023-03-04T00:35:48.342Z,14.55
2023-03-04T00:38:20.343Z,14.82
2023-03-04T00:40:49.624Z,15.05
2023-03-04T00:43:21.826Z,15.23
2023-03-04T00:45:56.992Z,15.27
2023-03-04T00:48:26.977Z,16.57
2023-03-04T00:50:55.936Z,14.32
2023-03-04T00:53:27.821Z,14.57
2023-03-04T00:56:01.643Z,15.05
2023-03-04T01:01:12.871Z,15.43
2023-03-04T01:03:42.697Z,16.70
2023-03-04T01:06:23.770Z,18.70
2023-03-04T01:08:51.937Z,18.67
2023-03-04T01:11:27.733Z,17.73
2023-03-04T01:19:08.038Z,17.00
2023-03-04T01:21:38.963Z,16.00
2023-03-04T01:24:09.139Z,16.70
2023-03-04T01:26:44.786Z,17.92
2023-03-04T01:29:14.959Z,18.60
2023-03-04T01:31:44.653Z,15.88
2023-03-04T01:34:19.141Z,15.95
2023-03-04T01:36:47.803Z,15.90
2023-03-04T01:39:16.758Z,15.10
2023-03-04T01:42:21.948Z,14.77
2023-03-04T01:44:50.427Z,16.30
2023-03-04T01:47:19.999Z,15.57
2023-03-04T01:49:50.845Z,17.38
2023-03-04T01:52:20.025Z,17.20
2023-03-04T01:54:50.805Z,18.27
2023-03-04T01:57:52.934Z,17.92
2023-03-04T02:00:26.555Z,16.52
2023-03-04T02:03:21.878Z,18.95
2023-03-04T02:05:51.590Z,21.70
2023-03-04T02:08:21.132Z,24.50
2023-03-04T02:10:54.769Z,25.60
2023-03-04T02:13:24.919Z,28.40
2023-03-04T02:15:54.072Z,26.25
2023-03-04T02:18:25.975Z,25.08
2023-03-04T02:21:06.007Z,26.10
2023-03-04T02:24:15.729Z,24.20
2023-03-04T02:26:47.842Z,20.98
2023-03-04T02:29:18.531Z,20.05
2023-03-04T02:31:50.737Z,19.90
2023-03-04T02:34:23.298Z,20.75
2023-03-04T02:36:52.881Z,20.95
2023-03-04T02:39:35.596Z,20.23
2023-03-04T02:42:05.049Z,20.65
2023-03-04T02:44:38.664Z,21.38
2023-03-04T02:47:09.069Z,20.88
2023-03-04T02:49:38.021Z,20.30
2023-03-04T02:52:15.290Z,20.48
2023-03-04T02:54:44.978Z,21.77
2023-03-04T02:57:20.937Z,21.23
2023-03-04T03:00:34.653Z,21.50
2023-03-04T03:03:06.730Z,20.23
2023-03-04T03:05:50.204Z,21.85
2023-03-04T03:08:19.797Z,21.63
2023-03-04T03:10:52.044Z,22.50
2023-03-04T03:13:23.052Z,22.55
2023-03-04T03:15:57.921Z,20.52
2023-03-04T03:18:31.432Z,19.52
2023-03-04T03:20:59.506Z,19.88
2023-03-04T03:23:32.042Z,20.60
2023-03-04T03:26:40.500Z,21.20
2023-03-04T03:29:09.264Z,20.42
2023-03-04T03:31:37.429Z,21.92
2023-03-04T03:34:07.954Z,22.27
2023-03-04T03:36:36.988Z,22.67
2023-03-04T03:39:06.209Z,23.42
2023-03-04T03:41:34.895Z,22.88
2023-03-04T03:44:04.010Z,23.95
2023-03-04T03:46:44.766Z,23.30
2023-03-04T03:49:48.404Z,25.23
2023-03-04T03:52:21.178Z,22.77
2023-03-04T03:54:49.428Z,25.02
2023-03-04T03:57:41.925Z,22.98
2023-03-04T04:00:11.295Z,21.20
2023-03-04T04:02:44.046Z,21.02
2023-03-04T04:05:14.183Z,21.95
2023-03-04T04:08:17.700Z,20.80
2023-03-04T04:10:54.952Z,22.48
2023-03-04T04:14:02.551Z,22.67
2023-03-04T04:18:08.207Z,22.13
2023-03-04T04:25:48.554Z,21.48
2023-03-04T04:28:17.211Z,21.55
2023-03-04T04:30:45.734Z,23.33
2023-03-04T04:33:54.810Z,22.73
2023-03-04T04:37:01.585Z,23.13
2023-03-04T04:39:31.734Z,23.85
2023-03-04T04:42:00.486Z,24.95
2023-03-04T04:44:28.921Z,24.65
2023-03-04T04:46:57.572Z,25.88
2023-03-04T04:49:30.271Z,25.13
2023-03-04T04:52:34.603Z,25.05
2023-03-04T04:55:03.164Z,23.65
2023-03-04T04:59:14.424Z,24.23
2023-03-04T05:02:18.594Z,23.70
2023-03-04T05:04:53.005Z,21.98
2023-03-04T05:07:32.044Z,21.17
2023-03-04T05:10:10.004Z,22.10
2023-03-04T05:12:46.185Z,20.63
2023-03-04T05:15:15.078Z,22.48
2023-03-04T05:18:16.629Z,25.13
2023-03-04T05:21:01.269Z,25.10
2023-03-04T05:23:34.694Z,22.52
2023-03-04T05:26:04.547Z,21.65
2023-03-04T05:28:34.921Z,21.40
2023-03-04T05:31:05.025Z,20.63
2023-03-04T05:33:34.199Z,20.70
2023-03-04T05:36:36.863Z,19.35
2023-03-04T05:39:14.067Z,20.05
2023-03-04T05:41:49.985Z,21.40
2023-03-04T05:44:33.540Z,18.75
2023-03-04T05:47:01.641Z,19.70
2023-03-04T05:49:33.935Z,20.88
2023-03-04T05:52:02.166Z,18.85
2023-03-04T05:54:33.978Z,17.77
2023-03-04T05:57:11.895Z,18.80
2023-03-04T06:00:13.834Z,17.88
2023-03-04T06:02:43.493Z,19.58
2023-03-04T06:05:13.687Z,19.27
2023-03-04T06:07:45.638Z,18.48
2023-03-04T06:10:16.200Z,19.13
2023-03-04T06:12:44.624Z,19.83
2023-03-04T06:15:15.264Z,20.25
2023-03-04T06:17:46.473Z,20.98
2023-03-04T06:20:17.487Z,22.42
2023-03-04T06:22:47.788Z,21.10
2023-03-04T06:25:54.013Z,21.50
2023-03-04T06:28:24.284Z,22.58
2023-03-04T06:30:55.192Z,22.67
2023-03-04T06:33:26.199Z,22.13
2023-03-04T06:35:58.489Z,23.02
2023-03-04T06:38:33.019Z,20.90
2023-03-04T06:41:09.909Z,22.25
2023-03-04T06:43:38.463Z,22.20
2023-03-04T06:46:07.998Z,21.48
2023-03-04T06:48:43.740Z,20.90
2023-03-04T06:51:13.660Z,22.00
2023-03-04T06:53:42.027Z,20.02
2023-03-04T06:56:19.629Z,18.65
2023-03-04T06:58:48.213Z,19.20
2023-03-04T07:01:20.606Z,19.15
2023-03-04T07:03:49.786Z,19.23
2023-03-04T07:06:20.542Z,20.42
2023-03-04T07:08:50.250Z,19.33
2023-03-04T07:11:19.274Z,19.02
2023-03-04T07:13:48.452Z,19.27
2023-03-04T07:16:21.725Z,18.75
2023-03-04T07:18:50.244Z,19.15
2023-03-04T07:21:26.223Z,16.55
2023-03-04T07:23:54.957Z,16.55
2023-03-04T07:27:05.724Z,18.80
2023-03-04T07:29:38.289Z,17.20
2023-03-04T07:32:39.039Z,18.50
2023-03-04T07:35:08.635Z,18.88
2023-03-04T07:37:36.852Z,16.77
2023-03-04T07:40:40.020Z,17.60
2023-03-04T07:43:11.249Z,17.73
2023-03-04T07:45:43.884Z,16.45
2023-03-04T07:48:13.668Z,18.50
2023-03-04T07:50:46.297Z,18.65
2023-03-04T07:53:15.477Z,17.55
2023-03-04T07:55:48.702Z,18.13
2023-03-04T07:58:26.514Z,17.40
2023-03-04T08:01:02.267Z,15.98
2023-03-04T08:03:32.241Z,17.55
2023-03-04T08:06:00.865Z,17.67
2023-03-04T08:08:28.961Z,17.75
2023-03-04T08:11:38.010Z,17.33
2023-03-04T08:14:09.358Z,16.80
2023-03-04T08:16:39.140Z,15.68
2023-03-04T08:19:12.482Z,15.43
2023-03-04T08:22:15.844Z,16.38
2023-03-04T08:24:45.566Z,15.63
2023-03-04T08:27:15.861Z,15.70
2023-03-04T08:29:45.152Z,17.05
2023-03-04T08:32:14.688Z,16.23
2023-03-04T08:34:43.270Z,16.73
2023-03-04T08:37:13.492Z,16.10
2023-03-04T08:39:49.514Z,17.23
2023-03-04T08:42:51.844Z,14.90
2023-03-04T08:46:01.135Z,16.02
2023-03-04T08:48:32.371Z,15.20
2023-03-04T08:51:02.202Z,14.68
2023-03-04T08:53:33.408Z,15.20
2023-03-04T08:56:04.313Z,16.63
2023-03-04T08:58:33.258Z,14.90
2023-03-04T09:01:02.895Z,17.35
2023-03-04T09:03:50.302Z,16.10
2023-03-04T09:06:29.216Z,14.80
2023-03-04T09:09:00.359Z,15.52
2023-03-04T09:11:32.328Z,14.15
2023-03-04T09:14:01.305Z,14.73
2023-03-04T09:16:32.965Z,14.30
2023-03-04T09:19:01.608Z,15.43
2023-03-04T09:21:33.251Z,14.63
2023-03-04T09:24:02.520Z,14.48
2023-03-04T09:26:30.764Z,13.45
2023-03-04T09:29:00.134Z,14.43
2023-03-04T09:31:28.667Z,13.73
2023-03-04T09:33:59.175Z,12.75
2023-03-04T09:36:27.389Z,13.50
2023-03-04T09:39:11.680Z,12.63
2023-03-04T09:42:49.219Z,11.93
2023-03-04T09:45:39.856Z,11.77
2023-03-04T09:49:17.978Z,11.55
2023-03-04T09:52:15.022Z,11.05
2023-03-04T09:55:07.487Z,12.27
2023-03-04T09:58:22.584Z,11.35
2023-03-04T10:06:09.715Z,9.95
2023-03-04T10:08:45.242Z,9.73
2023-03-04T10:11:14.886Z,10.63
2023-03-04T10:14:03.848Z,10.48
2023-03-04T10:16:58.041Z,11.60
2023-03-04T10:19:51.088Z,11.07
2023-03-04T10:22:37.183Z,11.40
2023-03-04T10:25:25.528Z,11.53
2023-03-04T10:28:26.007Z,13.13
2023-03-04T10:31:16.095Z,12.20
2023-03-04T10:33:44.725Z,12.32
2023-03-04T10:36:15.605Z,12.98
2023-03-04T10:38:46.085Z,12.05
2023-03-04T10:41:25.156Z,8.20
2023-03-04T10:44:02.058Z,10.43
2023-03-04T10:46:31.997Z,10.98
2023-03-04T10:49:00.445Z,10.65
2023-03-04T10:51:31.142Z,9.40
2023-03-04T10:54:09.632Z,9.85
2023-03-04T10:56:46.486Z,9.77
2023-03-04T10:59:54.761Z,8.52
2023-03-04T11:02:28.274Z,8.57
2023-03-04T11:05:14.833Z,9.00
2023-03-04T11:07:56.269Z,9.15
2023-03-04T11:10:37.892Z,9.43
2023-03-04T11:13:30.976Z,10.57
2023-03-04T11:16:04.657Z,9.43
2023-03-04T11:18:47.460Z,9.60
2023-03-04T11:21:30.718Z,9.23
2023-03-04T11:24:03.791Z,8.25
2023-03-04T11:26:40.617Z,9.52
2023-03-04T11:29:18.624Z,8.35
2023-03-04T11:32:09.486Z,9.13
2023-03-04T11:35:23.317Z,9.02
2023-03-04T11:38:06.585Z,9.93
2023-03-04T11:40:53.567Z,11.25
2023-03-04T11:43:38.510Z,10.55
2023-03-04T11:46:32.132Z,10.13
2023-03-04T11:49:18.281Z,11.13
2023-03-04T11:52:21.264Z,14.43
2023-03-04T11:54:55.339Z,13.80
2023-03-04T11:57:29.714Z,11.23
2023-03-04T12:00:21.984Z,12.60
2023-03-04T12:03:13.137Z,11.32
2023-03-04T12:06:06.196Z,11.15
2023-03-04T12:09:09.972Z,12.02
2023-03-04T12:12:08.460Z,10.68
2023-03-04T12:14:49.197Z,11.10
2023-03-04T12:17:41.601Z,10.43
2023-03-04T12:20:21.754Z,11.20
2023-03-04T12:23:22.108Z,12.32
2023-03-04T12:26:31.079Z,9.30
2023-03-04T12:29:04.401Z,9.35
2023-03-04T12:31:47.108Z,9.80
2023-03-04T12:34:34.876Z,10.75
2023-03-04T12:37:22.859Z,11.45
2023-03-04T12:39:56.535Z,10.75
2023-03-04T12:42:49.125Z,10.88
2023-03-04T12:45:21.128Z,11.32
2023-03-04T12:48:03.718Z,10.35
2023-03-04T12:51:01.910Z,11.00
2023-03-04T12:53:51.222Z,11.02
2023-03-04T12:56:32.789Z,10.18
2023-03-04T12:59:02.755Z,10.70
2023-03-04T13:01:40.033Z,10.75
2023-03-04T13:04:26.891Z,10.25
2023-03-04T13:09:48.689Z,10.70
2023-03-04T13:12:22.453Z,8.88
2023-03-04T13:15:11.961Z,9.65
2023-03-04T13:18:30.333Z,10.35
2023-03-04T13:21:08.072Z,9.60
2023-03-04T13:23:36.183Z,10.80
2023-03-04T13:26:22.443Z,9.40
2023-03-04T13:29:14.134Z,9.68
2023-03-04T13:32:12.183Z,9.05
2023-03-04T13:34:54.143Z,10.68
2023-03-04T13:37:30.295Z,10.57
2023-03-04T13:40:23.577Z,9.63
2023-03-04T13:42:52.186Z,9.25
2023-03-04T13:45:37.347Z,8.32
2023-03-04T13:48:08.501Z,8.05
2023-03-04T13:50:41.589Z,8.35
2023-03-04T13:53:24.030Z,8.60
2023-03-04T13:56:12.604Z,8.68
2023-03-04T13:58:40.894Z,8.75
2023-03-04T14:01:24.100Z,9.13
2023-03-04T14:03:52.024Z,8.82
2023-03-04T14:06:30.613Z,9.80
2023-03-04T14:08:59.219Z,9.18
2023-03-04T14:11:41.896Z,9.55
2023-03-04T14:14:15.688Z,9.50
2023-03-04T14:17:00.465Z,9.20
2023-03-04T14:19:30.534Z,8.93
2023-03-04T14:21:59.289Z,8.88
2023-03-04T14:24:30.328Z,9.45
2023-03-04T14:27:11.839Z,9.50
2023-03-04T14:29:44.003Z,9.43
2023-03-04T14:32:12.871Z,10.13
2023-03-04T14:34:44.756Z,11.55
2023-03-04T14:37:39.002Z,9.35
2023-03-04T14:40:09.815Z,10.13
2023-03-04T14:42:41.467Z,9.00
2023-03-04T14:45:15.616Z,9.25
2023-03-04T14:47:47.617Z,9.85
2023-03-04T14:50:17.835Z,9.50
2023-03-04T14:52:47.790Z,9.52
2023-03-04T14:55:15.789Z,10.27
2023-03-04T14:57:48.987Z,10.68
2023-03-04T15:00:21.770Z,10.00
2023-03-04T15:03:30.278Z,9.07
2023-03-04T15:06:27.692Z,10.40
2023-03-04T15:09:00.526Z,9.23
2023-03-04T15:12:11.234Z,9.23
2023-03-04T15:14:49.048Z,10.40
2023-03-04T15:17:33.134Z,11.13
2023-03-04T15:20:25.368Z,10.93
2023-03-04T15:22:54.630Z,9.95
2023-03-04T15:26:03.336Z,11.07
2023-03-04T15:28:36.044Z,10.38
2023-03-04T15:31:26.326Z,10.52
2023-03-04T15:33:55.591Z,12.45
2023-03-04T15:36:27.082Z,12.45
2023-03-04T15:38:57.566Z,11.10
2023-03-04T15:41:28.077Z,12.48
2023-03-04T15:44:03.901Z,11.43
2023-03-04T15:46:33.719Z,12.27
2023-03-04T15:49:04.676Z,11.23
2023-03-04T15:51:34.374Z,11.35
2023-03-04T15:54:02.766Z,11.65
2023-03-04T15:57:07.707Z,10.60
2023-03-04T15:59:54.718Z,11.20
2023-03-04T16:02:37.351Z,11.48
2023-03-04T16:05:17.094Z,11.18
2023-03-04T16:08:14.151Z,11.77
2023-03-04T16:11:58.484Z,10.60
2023-03-04T16:14:34.451Z,14.00
2023-03-04T16:17:51.931Z,10.57
2023-03-04T16:24:16.878Z,11.18
2023-03-04T16:26:45.237Z,12.20
2023-03-04T16:29:13.487Z,10.88
2023-03-04T16:32:02.972Z,11.38
2023-03-04T16:34:32.108Z,10.73
2023-03-04T16:37:01.064Z,11.63
2023-03-04T16:39:31.792Z,10.77
2023-03-04T16:42:02.870Z,11.57
2023-03-04T16:44:31.244Z,10.30
2023-03-04T16:47:05.573Z,10.73
2023-03-04T16:49:35.517Z,11.20
2023-03-04T16:52:03.657Z,12.23
2023-03-04T16:54:34.329Z,11.93
2023-03-04T16:57:02.671Z,12.63
2023-03-04T16:59:30.963Z,13.30
2023-03-04T17:01:59.892Z,12.10
2023-03-04T17:04:30.835Z,11.63
2023-03-04T17:06:59.582Z,11.32
2023-03-04T17:09:27.830Z,11.88
2023-03-04T17:11:59.908Z,11.80
2023-03-04T17:14:28.818Z,12.98
2023-03-04T17:16:57.887Z,19.23
2023-03-04T17:19:27.922Z,15.15
2023-03-04T17:22:00.149Z,12.10
2023-03-04T17:24:37.648Z,10.77
2023-03-04T17:29:35.407Z,11.05
2023-03-04T17:32:05.296Z,11.25
2023-03-04T17:34:37.206Z,12.65
2023-03-04T17:37:05.310Z,12.77
2023-03-04T17:39:38.268Z,21.80
2023-03-04T17:42:07.395Z,16.70
2023-03-04T17:44:35.509Z,13.63
2023-03-04T17:47:04.432Z,13.45
2023-03-04T17:49:36.912Z,12.43
2023-03-04T17:52:09.514Z,12.55
2023-03-04T17:54:38.215Z,11.80
2023-03-04T17:57:14.938Z,13.10
2023-03-04T17:59:45.384Z,11.82
2023-03-04T18:02:16.160Z,11.73
2023-03-04T18:04:50.090Z,11.95
2023-03-04T18:07:18.391Z,13.77
2023-03-04T18:09:52.268Z,13.80
2023-03-04T18:12:22.513Z,12.88
2023-03-04T18:14:54.765Z,13.32
2023-03-04T18:17:23.776Z,12.82
2023-03-04T18:19:57.663Z,13.25
2023-03-04T18:22:25.847Z,13.27
2023-03-04T18:24:53.962Z,13.52
2023-03-04T18:27:22.149Z,14.30
2023-03-04T18:29:52.878Z,14.85
2023-03-04T18:32:21.045Z,14.50
2023-03-04T18:34:51.589Z,15.88
2023-03-04T18:37:20.140Z,15.45
2023-03-04T18:39:53.981Z,15.25
2023-03-04T18:42:27.696Z,14.27
2023-03-04T18:45:03.573Z,15.40
2023-03-04T18:47:33.408Z,15.05
2023-03-04T18:50:01.760Z,14.13
2023-03-04T18:52:30.241Z,15.25
2023-03-04T18:54:59.038Z,14.07
2023-03-04T18:57:35.877Z,14.73
2023-03-04T19:00:08.924Z,15.30
2023-03-04T19:02:43.313Z,15.63
2023-03-04T19:05:17.087Z,16.00
2023-03-04T19:07:45.170Z,15.30
2023-03-04T19:10:13.487Z,14.45
2023-03-04T19:12:41.813Z,15.52
2023-03-04T19:15:10.654Z,14.60
2023-03-04T19:17:59.631Z,14.57
2023-03-04T19:20:31.505Z,15.23
2023-03-04T19:23:00.403Z,14.65
2023-03-04T19:25:43.385Z,14.20
2023-03-04T19:28:15.653Z,14.82
2023-03-04T19:30:43.697Z,15.73
2023-03-04T19:33:12.659Z,16.02
2023-03-04T19:35:42.688Z,14.15
2023-03-04T19:38:11.289Z,15.07
2023-03-04T19:40:41.575Z,15.77
2023-03-04T19:43:10.110Z,15.88
2023-03-04T19:45:53.063Z,17.15
2023-03-04T19:48:23.094Z,15.40
2023-03-04T19:50:52.257Z,14.68
2023-03-04T19:53:20.743Z,16.50
2023-03-04T19:55:49.579Z,15.63
2023-03-04T19:58:19.586Z,17.10
2023-03-04T20:00:48.195Z,16.95
2023-03-04T20:03:20.397Z,15.45
2023-03-04T20:05:48.548Z,15.93
2023-03-04T20:08:20.435Z,16.33
2023-03-04T20:10:53.204Z,16.27
2023-03-04T20:13:26.856Z,15.60
2023-03-04T20:15:57.779Z,16.92
2023-03-04T20:18:26.407Z,16.27
2023-03-04T20:24:13.447Z,16.15
2023-03-04T20:26:49.660Z,16.77
2023-03-04T20:29:20.947Z,16.55
2023-03-04T20:31:49.435Z,16.80
2023-03-04T20:34:17.958Z,16.80
2023-03-04T20:36:46.435Z,17.15
2023-03-04T20:39:28.046Z,17.15
2023-03-04T20:42:18.003Z,17.45
2023-03-04T20:44:46.751Z,16.00
2023-03-04T20:47:16.495Z,17.08
2023-03-04T20:49:44.988Z,16.33
2023-03-04T20:52:13.041Z,17.10
2023-03-04T20:54:50.072Z,18.00
2023-03-04T20:57:30.419Z,17.48
2023-03-04T20:59:58.675Z,17.88
2023-03-04T21:02:34.771Z,18.33
2023-03-04T21:05:08.063Z,18.38
2023-03-04T21:07:36.184Z,21.23
2023-03-04T21:10:04.861Z,18.40
2023-03-04T21:12:44.305Z,18.70
2023-03-04T21:15:17.191Z,19.67
2023-03-04T21:18:11.610Z,21.77
2023-03-04T21:20:45.134Z,19.15
2023-03-04T21:23:22.364Z,18.70
2023-03-04T21:25:54.241Z,21.13
2023-03-04T21:28:24.106Z,21.30
2023-03-04T21:30:53.881Z,22.20
2023-03-04T21:33:29.670Z,21.55
2023-03-04T21:35:58.081Z,22.23
2023-03-04T21:38:26.235Z,22.85
2023-03-04T21:40:54.530Z,24.52
2023-03-04T21:43:27.017Z,25.95
2023-03-04T21:45:57.887Z,24.33
2023-03-04T21:48:26.362Z,23.00
2023-03-04T21:51:06.721Z,22.92
2023-03-04T21:53:37.823Z,22.67
2023-03-04T21:56:11.345Z,22.85
2023-03-04T21:58:42.543Z,24.58
2023-03-04T22:01:21.556Z,21.27
2023-03-04T22:03:52.907Z,21.83
2023-03-04T22:06:23.568Z,21.20
2023-03-04T22:08:53.253Z,22.58
2023-03-04T22:11:22.971Z,22.85
2023-03-04T22:13:58.217Z,22.23
2023-03-04T22:16:28.896Z,23.73
2023-03-04T22:18:59.557Z,22.08
2023-03-04T22:21:28.216Z,21.42
2023-03-04T22:23:57.171Z,22.17
2023-03-04T22:26:31.633Z,22.77
2023-03-04T22:29:01.360Z,24.50
2023-03-04T22:31:35.751Z,22.27
2023-03-04T22:34:10.409Z,22.93
2023-03-04T22:36:46.745Z,24.40
2023-03-04T22:39:16.036Z,25.77
2023-03-04T22:41:45.820Z,23.75
2023-03-04T22:44:14.178Z,23.35
2023-03-04T22:46:44.087Z,23.85
2023-03-04T22:49:13.352Z,24.48
2023-03-04T22:51:42.555Z,25.67
2023-03-04T22:54:17.793Z,26.52
2023-03-04T22:56:45.983Z,24.13
2023-03-04T22:59:14.254Z,25.08
2023-03-04T23:01:43.303Z,25.05
2023-03-04T23:04:13.677Z,25.30
2023-03-04T23:06:42.698Z,26.02
2023-03-04T23:09:13.359Z,25.92
2023-03-04T23:11:45.183Z,26.05
2023-03-04T23:14:22.186Z,24.85
2023-03-04T23:16:50.425Z,24.70
2023-03-04T23:19:26.321Z,24.92
2023-03-04T23:21:57.739Z,24.45
2023-03-04T23:24:26.750Z,26.65
2023-03-04T23:26:54.810Z,27.80
2023-03-04T23:29:25.437Z,26.02
2023-03-04T23:31:54.365Z,26.58
2023-03-04T23:34:22.846Z,24.60
2023-03-04T23:36:50.870Z,26.70
2023-03-04T23:39:27.336Z,25.05
2023-03-04T23:41:56.329Z,26.17
2023-03-04T23:44:24.645Z,25.42
2023-03-04T23:46:53.809Z,26.13
2023-03-04T23:49:22.430Z,24.55
2023-03-04T23:51:58.417Z,25.73
2023-03-04T23:54:26.772Z,25.58
2023-03-04T23:56:54.740Z,25.45
2023-03-04T23:59:25.375Z,25.40
